createdAt,value
2023-03-26T00:02:16.165Z,14.97
2023-03-26T00:04:42.811Z,15.39
2023-03-26T00:07:10.658Z,15.60
2023-03-26T00:09:37.295Z,14.84
2023-03-26T00:12:04.342Z,14.94
2023-03-26T00:14:32.652Z,14.95
2023-03-26T00:16:59.415Z,14.81
2023-03-26T00:19:26.150Z,14.91
2023-03-26T00:21:53.329Z,14.40
2023-03-26T00:24:19.941Z,15.08
2023-03-26T00:26:53.556Z,15.00
2023-03-26T00:29:20.746Z,14.59
2023-03-26T00:31:47.359Z,14.11
2023-03-26T00:34:15.763Z,14.40
2023-03-26T00:36:43.948Z,14.31
2023-03-26T00:39:10.902Z,14.44
2023-03-26T00:41:43.202Z,14.41
2023-03-26T00:44:10.465Z,14.40
2023-03-26T00:46:37.537Z,15.03
2023-03-26T00:49:04.264Z,14.90
2023-03-26T00:51:31.504Z,15.25
2023-03-26T00:53:58.525Z,15.04
2023-03-26T00:56:25.934Z,15.44
2023-03-26T00:58:52.613Z,15.27
2023-03-26T01:01:28.335Z,15.30
2023-03-26T01:04:07.590Z,15.38
2023-03-26T01:06:37.282Z,14.61
2023-03-26T01:09:15.951Z,14.62
2023-03-26T01:11:42.711Z,14.77
2023-03-26T01:14:10.972Z,15.01
2023-03-26T01:16:46.058Z,14.51
2023-03-26T01:19:22.964Z,14.76
2023-03-26T01:21:49.624Z,15.24
2023-03-26T01:24:16.260Z,14.85
2023-03-26T01:26:49.123Z,14.79
2023-03-26T01:29:21.262Z,14.83
2023-03-26T01:31:57.089Z,14.89
2023-03-26T01:34:30.705Z,14.49
2023-03-26T01:37:04.665Z,14.84
2023-03-26T01:39:34.281Z,14.94
2023-03-26T01:42:08.212Z,14.88
2023-03-26T01:44:40.820Z,15.25
2023-03-26T01:47:09.659Z,14.58
2023-03-26T01:49:36.500Z,14.97
2023-03-26T01:52:06.283Z,14.93
2023-03-26T01:54:34.125Z,14.95
2023-03-26T01:57:14.744Z,14.86
2023-03-26T01:59:41.611Z,14.80
2023-03-26T02:02:26.446Z,15.03
2023-03-26T02:05:13.967Z,14.99
2023-03-26T02:07:51.525Z,14.80
2023-03-26T02:10:27.802Z,14.25
2023-03-26T02:12:54.849Z,14.98
2023-03-26T02:15:21.468Z,14.35
2023-03-26T02:17:49.557Z,14.90
2023-03-26T02:20:18.859Z,14.73
2023-03-26T02:22:47.289Z,14.30
2023-03-26T02:25:20.623Z,14.33
2023-03-26T02:27:50.375Z,14.42
2023-03-26T02:30:19.537Z,14.31
2023-03-26T02:32:52.216Z,14.01
2023-03-26T02:35:21.902Z,13.93
2023-03-26T02:37:52.656Z,14.20
2023-03-26T02:40:22.483Z,13.89
2023-03-26T02:42:50.776Z,14.08
2023-03-26T02:45:17.488Z,14.36
2023-03-26T02:47:51.057Z,14.15
2023-03-26T02:50:42.093Z,14.06
2023-03-26T02:53:37.614Z,14.46
2023-03-26T02:56:36.561Z,14.17
2023-03-26T02:59:22.028Z,14.26
2023-03-26T03:02:01.687Z,14.09
2023-03-26T03:04:31.983Z,13.83
2023-03-26T03:06:59.928Z,14.07
2023-03-26T03:09:26.793Z,14.17
2023-03-26T03:12:11.794Z,13.62
2023-03-26T03:14:38.576Z,13.88
2023-03-26T03:17:05.737Z,13.84
2023-03-26T03:19:32.477Z,13.91
2023-03-26T03:21:59.236Z,13.70
2023-03-26T03:24:27.184Z,13.42
2023-03-26T03:26:56.917Z,13.76
2023-03-26T03:29:33.063Z,13.86
2023-03-26T03:32:19.996Z,13.70
2023-03-26T03:34:50.791Z,13.06
2023-03-26T03:37:18.973Z,13.00
2023-03-26T03:39:51.457Z,13.76
2023-03-26T03:42:20.899Z,13.79
2023-03-26T03:44:49.825Z,14.03
2023-03-26T03:47:39.928Z,14.11
2023-03-26T03:50:07.521Z,13.23
2023-03-26T03:52:35.119Z,13.51
2023-03-26T03:55:02.122Z,13.68
2023-03-26T03:57:52.738Z,13.60
2023-03-26T04:00:22.687Z,13.42
2023-03-26T04:03:06.479Z,13.58
2023-03-26T04:05:34.058Z,12.93
2023-03-26T04:08:00.777Z,13.66
2023-03-26T04:10:51.237Z,14.08
2023-03-26T04:13:38.225Z,13.69
2023-03-26T04:16:25.299Z,14.09
2023-03-26T04:18:52.140Z,13.99
2023-03-26T04:21:19.368Z,14.27
2023-03-26T04:23:46.182Z,13.94
2023-03-26T04:26:38.733Z,14.23
2023-03-26T04:29:17.074Z,14.63
2023-03-26T04:31:44.997Z,14.71
2023-03-26T04:34:26.286Z,14.44
2023-03-26T04:37:39.666Z,14.38
2023-03-26T04:40:22.014Z,14.49
2023-03-26T04:43:12.509Z,14.36
2023-03-26T04:46:11.758Z,14.67
2023-03-26T04:48:50.746Z,14.59
2023-03-26T04:51:18.598Z,14.50
2023-03-26T04:53:54.359Z,14.66
2023-03-26T04:56:43.822Z,14.71
2023-03-26T04:59:30.239Z,14.01
2023-03-26T05:01:59.046Z,14.18
2023-03-26T05:04:34.096Z,14.00
2023-03-26T05:07:02.283Z,13.99
2023-03-26T05:09:41.857Z,13.94
2023-03-26T05:12:30.438Z,13.74
2023-03-26T05:15:03.784Z,13.89
2023-03-26T05:17:55.612Z,14.03
2023-03-26T05:20:40.096Z,13.65
2023-03-26T05:23:08.457Z,13.42
2023-03-26T05:25:37.862Z,13.50
2023-03-26T05:28:11.768Z,13.60
2023-03-26T05:30:47.129Z,13.50
2023-03-26T05:33:14.193Z,14.20
2023-03-26T05:35:58.604Z,14.37
2023-03-26T05:38:25.630Z,13.69
2023-03-26T05:40:56.991Z,13.70
2023-03-26T05:43:23.648Z,14.10
2023-03-26T05:46:16.806Z,13.47
2023-03-26T05:48:44.655Z,13.78
2023-03-26T05:51:12.501Z,13.94
2023-03-26T05:53:43.398Z,13.69
2023-03-26T05:56:28.774Z,14.00
2023-03-26T05:59:18.250Z,13.97
2023-03-26T06:02:03.334Z,14.03
2023-03-26T06:04:42.536Z,13.78
2023-03-26T06:07:47.766Z,13.62
2023-03-26T06:10:19.089Z,14.11
2023-03-26T06:12:46.394Z,14.45
2023-03-26T06:15:13.464Z,14.57
2023-03-26T06:18:01.450Z,14.94
2023-03-26T06:20:46.867Z,14.88
2023-03-26T06:23:23.228Z,14.82
2023-03-26T06:26:10.058Z,15.01
2023-03-26T06:29:01.440Z,14.62
2023-03-26T06:31:43.961Z,14.85
2023-03-26T06:34:18.745Z,15.08
2023-03-26T06:36:45.747Z,15.54
2023-03-26T06:39:12.278Z,15.15
2023-03-26T06:41:47.293Z,15.69
2023-03-26T06:44:34.282Z,15.71
2023-03-26T06:47:21.371Z,15.86
2023-03-26T06:49:48.026Z,15.74
2023-03-26T06:52:31.627Z,15.72
2023-03-26T06:55:05.905Z,16.09
2023-03-26T06:57:50.262Z,16.07
2023-03-26T07:00:42.876Z,16.02
2023-03-26T07:03:28.338Z,16.45
2023-03-26T07:06:13.677Z,16.18
2023-03-26T07:09:06.516Z,16.09
2023-03-26T07:11:52.029Z,15.55
2023-03-26T07:14:50.556Z,15.59
2023-03-26T07:17:26.563Z,15.74
2023-03-26T07:20:01.425Z,16.20
2023-03-26T07:22:28.316Z,15.98
2023-03-26T07:25:15.809Z,16.06
2023-03-26T07:28:06.630Z,14.31
2023-03-26T07:30:59.252Z,14.62
2023-03-26T07:33:48.507Z,14.62
2023-03-26T07:36:43.597Z,15.03
2023-03-26T07:39:43.684Z,15.42
2023-03-26T07:42:39.693Z,15.42
2023-03-26T07:45:29.398Z,15.85
2023-03-26T07:48:25.399Z,16.10
2023-03-26T07:51:14.636Z,16.05
2023-03-26T07:54:08.993Z,16.17
2023-03-26T07:56:45.539Z,16.26
2023-03-26T07:59:46.329Z,15.91
2023-03-26T08:02:47.081Z,15.98
2023-03-26T08:05:45.784Z,16.56
2023-03-26T08:09:04.615Z,16.89
2023-03-26T08:12:14.298Z,17.60
2023-03-26T08:14:48.077Z,18.01
2023-03-26T08:17:17.442Z,17.77
2023-03-26T08:20:07.316Z,18.04
2023-03-26T08:22:37.418Z,18.26
2023-03-26T08:25:04.053Z,18.30
2023-03-26T08:27:41.535Z,18.06
2023-03-26T08:30:10.799Z,18.02
2023-03-26T08:32:37.782Z,18.12
2023-03-26T08:35:05.096Z,18.62
2023-03-26T08:37:31.803Z,18.66
2023-03-26T08:39:58.453Z,17.98
2023-03-26T08:42:36.789Z,17.98
2023-03-26T08:45:10.351Z,17.81
2023-03-26T08:48:04.152Z,18.31
2023-03-26T08:50:53.139Z,18.50
2023-03-26T08:53:20.375Z,18.45
2023-03-26T08:56:02.981Z,18.36
2023-03-26T08:58:47.331Z,18.41
2023-03-26T09:01:29.301Z,18.12
2023-03-26T09:04:14.065Z,18.48
2023-03-26T09:06:59.216Z,18.59
2023-03-26T09:09:43.027Z,18.74
2023-03-26T09:12:28.936Z,19.02
2023-03-26T09:14:58.426Z,19.07
2023-03-26T09:17:48.402Z,19.81
2023-03-26T09:20:21.928Z,19.51
2023-03-26T09:23:22.003Z,19.57
2023-03-26T09:25:51.467Z,19.60
2023-03-26T09:28:44.420Z,19.94
2023-03-26T09:31:29.980Z,19.39
2023-03-26T09:34:01.048Z,19.48
2023-03-26T09:36:27.649Z,19.65
2023-03-26T09:39:03.192Z,19.65
2023-03-26T09:41:35.793Z,19.58
2023-03-26T09:44:13.244Z,19.54
2023-03-26T09:46:46.667Z,19.35
2023-03-26T09:49:30.938Z,19.83
2023-03-26T09:52:16.509Z,20.31
2023-03-26T09:54:44.661Z,20.18
2023-03-26T09:57:21.982Z,19.99
2023-03-26T10:00:09.818Z,18.88
2023-03-26T10:02:53.859Z,18.47
2023-03-26T10:05:38.394Z,18.65
2023-03-26T10:08:20.299Z,18.85
2023-03-26T10:11:11.217Z,18.46
2023-03-26T10:13:43.679Z,19.81
2023-03-26T10:16:19.527Z,20.21
2023-03-26T10:18:49.561Z,20.83
2023-03-26T10:21:27.520Z,21.34
2023-03-26T10:23:57.031Z,21.17
2023-03-26T10:27:09.827Z,20.99
2023-03-26T10:29:38.785Z,20.76
2023-03-26T10:32:05.976Z,20.81
2023-03-26T10:34:44.757Z,20.66
2023-03-26T10:37:20.996Z,20.55
2023-03-26T10:40:05.976Z,21.28
2023-03-26T10:42:38.579Z,21.02
2023-03-26T10:45:23.985Z,20.82
2023-03-26T10:48:09.214Z,20.13
2023-03-26T10:50:51.974Z,20.64
2023-03-26T10:53:37.400Z,20.62
2023-03-26T10:56:25.730Z,20.60
2023-03-26T10:58:52.605Z,21.17
2023-03-26T11:01:25.312Z,21.39
2023-03-26T11:04:03.549Z,20.89
2023-03-26T11:06:34.846Z,21.27
2023-03-26T11:09:12.282Z,21.41
2023-03-26T11:11:45.678Z,20.20
2023-03-26T11:14:16.834Z,20.37
2023-03-26T11:17:06.948Z,21.37
2023-03-26T11:19:53.223Z,20.28
2023-03-26T11:22:19.979Z,20.37
2023-03-26T11:24:47.586Z,21.33
2023-03-26T11:27:35.453Z,21.47
2023-03-26T11:30:11.517Z,21.71
2023-03-26T11:32:55.812Z,22.23
2023-03-26T11:35:39.395Z,22.66
2023-03-26T11:38:32.886Z,21.26
2023-03-26T11:41:01.222Z,21.41
2023-03-26T11:43:52.417Z,20.70
2023-03-26T11:46:21.669Z,21.20
2023-03-26T11:48:50.814Z,21.58
2023-03-26T11:51:27.533Z,20.62
2023-03-26T11:53:54.584Z,21.15
2023-03-26T11:56:33.909Z,21.35
2023-03-26T11:59:05.872Z,21.09
2023-03-26T12:01:50.814Z,22.06
2023-03-26T12:04:25.765Z,21.23
2023-03-26T12:07:07.002Z,22.08
2023-03-26T12:09:35.366Z,23.09
2023-03-26T12:12:03.889Z,22.24
2023-03-26T12:14:34.011Z,23.31
2023-03-26T12:17:05.883Z,23.67
2023-03-26T12:19:38.152Z,23.81
2023-03-26T12:22:05.208Z,23.55
2023-03-26T12:24:34.037Z,23.54
2023-03-26T12:27:20.383Z,23.01
2023-03-26T12:30:00.207Z,24.07
2023-03-26T12:32:43.231Z,24.40
2023-03-26T12:35:39.197Z,24.16
2023-03-26T12:38:24.336Z,23.91
2023-03-26T12:42:52.656Z,23.85
2023-03-26T12:44:55.609Z,23.65
2023-03-26T12:48:00.200Z,23.66
2023-03-26T12:50:14.473Z,23.81
2023-03-26T12:53:01.078Z,24.49
2023-03-26T12:55:30.697Z,24.31
2023-03-26T12:58:14.057Z,24.62
2023-03-26T13:00:41.770Z,24.40
2023-03-26T13:03:27.773Z,23.96
2023-03-26T13:06:02.327Z,24.37
2023-03-26T13:08:30.311Z,24.84
2023-03-26T13:11:03.666Z,25.37
2023-03-26T13:13:43.242Z,25.73
2023-03-26T13:16:17.222Z,25.96
2023-03-26T13:18:50.845Z,25.17
2023-03-26T13:21:19.844Z,25.36
2023-03-26T13:23:52.960Z,24.62
2023-03-26T13:26:19.580Z,24.93
2023-03-26T13:29:09.161Z,25.49
2023-03-26T13:31:54.772Z,24.25
2023-03-26T13:34:41.782Z,24.15
2023-03-26T13:37:21.340Z,24.31
2023-03-26T13:40:16.048Z,24.61
2023-03-26T13:43:01.600Z,25.22
2023-03-26T13:45:31.311Z,25.12
2023-03-26T13:47:59.113Z,25.84
2023-03-26T13:50:38.473Z,24.82
2023-03-26T13:53:14.115Z,25.23
2023-03-26T13:55:42.591Z,25.02
2023-03-26T13:58:21.343Z,25.13
2023-03-26T14:01:00.367Z,25.69
2023-03-26T14:03:45.928Z,25.66
2023-03-26T14:06:18.804Z,25.23
2023-03-26T14:08:47.615Z,24.94
2023-03-26T14:11:21.741Z,25.66
2023-03-26T14:13:51.782Z,25.30
2023-03-26T14:16:26.355Z,25.02
2023-03-26T14:19:11.636Z,25.64
2023-03-26T14:21:38.389Z,25.52
2023-03-26T14:24:05.101Z,25.86
2023-03-26T14:26:50.273Z,25.12
2023-03-26T14:29:35.672Z,25.70
2023-03-26T14:32:24.259Z,26.07
2023-03-26T14:35:11.094Z,26.72
2023-03-26T14:37:57.473Z,26.72
2023-03-26T14:40:33.413Z,26.81
2023-03-26T14:43:04.335Z,25.73
2023-03-26T14:45:31.141Z,25.99
2023-03-26T14:48:16.993Z,26.13
2023-03-26T14:50:54.680Z,25.82
2023-03-26T14:53:28.761Z,26.09
2023-03-26T14:56:15.582Z,25.27
2023-03-26T14:59:01.251Z,25.40
2023-03-26T15:01:59.150Z,25.56
2023-03-26T15:04:44.068Z,26.00
2023-03-26T15:07:30.280Z,25.67
2023-03-26T15:09:56.902Z,25.37
2023-03-26T15:12:43.922Z,25.00
2023-03-26T15:15:26.335Z,25.38
2023-03-26T15:17:53.143Z,25.13
2023-03-26T15:20:38.628Z,24.77
2023-03-26T15:23:25.621Z,24.60
2023-03-26T15:26:01.146Z,24.56
2023-03-26T15:28:31.831Z,24.78
2023-03-26T15:31:09.796Z,24.87
2023-03-26T15:33:50.799Z,24.24
2023-03-26T15:36:23.416Z,23.75
2023-03-26T15:38:50.015Z,23.97
2023-03-26T15:41:17.707Z,23.39
2023-03-26T15:44:22.819Z,23.35
2023-03-26T15:46:51.306Z,22.87
2023-03-26T15:49:27.092Z,23.12
2023-03-26T15:52:12.655Z,22.63
2023-03-26T15:54:39.544Z,22.67
2023-03-26T15:57:17.635Z,22.70
2023-03-26T15:59:53.137Z,22.80
2023-03-26T16:02:28.608Z,22.76
2023-03-26T16:04:57.590Z,22.74
2023-03-26T16:07:24.253Z,22.55
2023-03-26T16:10:09.993Z,22.71
2023-03-26T16:12:56.979Z,22.29
2023-03-26T16:15:23.665Z,22.44
2023-03-26T16:18:09.384Z,22.37
2023-03-26T16:20:36.573Z,22.27
2023-03-26T16:23:06.170Z,22.16
2023-03-26T16:25:34.796Z,22.20
2023-03-26T16:28:10.772Z,22.26
2023-03-26T16:30:37.684Z,22.38
2023-03-26T16:33:15.692Z,22.23
2023-03-26T16:36:06.357Z,22.23
2023-03-26T16:38:51.942Z,21.89
2023-03-26T16:41:22.028Z,22.15
2023-03-26T16:43:50.921Z,22.33
2023-03-26T16:46:20.733Z,22.10
2023-03-26T16:48:55.527Z,21.88
2023-03-26T16:51:46.506Z,22.02
2023-03-26T16:54:32.466Z,22.01
2023-03-26T16:57:15.919Z,22.05
2023-03-26T17:00:04.615Z,22.07
2023-03-26T17:02:52.434Z,21.89
2023-03-26T17:05:37.382Z,21.89
2023-03-26T17:08:35.939Z,22.05
2023-03-26T17:11:21.038Z,21.79
2023-03-26T17:13:51.643Z,21.80
2023-03-26T17:16:32.523Z,21.23
2023-03-26T17:19:06.562Z,21.23
2023-03-26T17:21:55.566Z,21.37
2023-03-26T17:24:30.710Z,21.18
2023-03-26T17:27:23.874Z,20.91
2023-03-26T17:29:59.939Z,20.76
2023-03-26T17:32:47.280Z,20.37
2023-03-26T17:35:15.489Z,20.13
2023-03-26T17:37:47.865Z,20.03
2023-03-26T17:40:31.172Z,20.24
2023-03-26T17:43:08.290Z,20.04
2023-03-26T17:45:37.285Z,20.20
2023-03-26T17:48:10.387Z,20.47
2023-03-26T17:50:45.983Z,20.61
2023-03-26T17:53:12.683Z,20.37
2023-03-26T17:55:40.953Z,20.20
2023-03-26T17:58:28.818Z,20.05
2023-03-26T18:01:04.097Z,19.75
2023-03-26T18:03:35.459Z,19.41
2023-03-26T18:06:13.344Z,19.18
2023-03-26T18:08:49.161Z,19.08
2023-03-26T18:11:36.188Z,18.96
2023-03-26T18:14:18.028Z,18.86
2023-03-26T18:16:47.860Z,18.78
2023-03-26T18:19:19.433Z,19.22
2023-03-26T18:21:50.182Z,19.53
2023-03-26T18:24:36.027Z,19.05
2023-03-26T18:27:14.785Z,18.98
2023-03-26T18:29:46.053Z,19.06
2023-03-26T18:32:12.708Z,19.04
2023-03-26T18:34:46.484Z,19.20
2023-03-26T18:37:18.496Z,19.00
2023-03-26T18:40:02.416Z,18.84
2023-03-26T18:42:32.662Z,18.83
2023-03-26T18:45:01.979Z,18.64
2023-03-26T18:47:30.560Z,18.80
2023-03-26T18:49:58.035Z,18.70
2023-03-26T18:52:27.259Z,18.72
2023-03-26T18:54:54.352Z,18.91
2023-03-26T18:57:23.010Z,18.73
2023-03-26T18:59:51.683Z,18.54
2023-03-26T19:02:18.896Z,18.02
2023-03-26T19:04:47.137Z,18.39
2023-03-26T19:07:15.742Z,18.70
2023-03-26T19:09:43.288Z,18.67
2023-03-26T19:12:17.890Z,18.90
2023-03-26T19:14:51.318Z,18.96
2023-03-26T19:17:18.358Z,18.70
2023-03-26T19:19:46.215Z,18.88
2023-03-26T19:22:12.810Z,18.93
2023-03-26T19:24:41.000Z,18.77
2023-03-26T19:27:08.757Z,18.57
2023-03-26T19:29:36.224Z,18.25
2023-03-26T19:32:05.261Z,18.32
2023-03-26T19:34:34.884Z,18.11
2023-03-26T19:37:17.295Z,18.46
2023-03-26T19:39:45.103Z,18.68
2023-03-26T19:42:17.607Z,18.33
2023-03-26T19:44:44.628Z,18.06
2023-03-26T19:47:17.065Z,17.93
2023-03-26T19:49:57.581Z,18.13
2023-03-26T19:52:31.844Z,18.38
2023-03-26T19:55:02.947Z,18.36
2023-03-26T19:57:30.465Z,18.21
2023-03-26T19:59:57.541Z,18.18
2023-03-26T20:02:24.718Z,18.17
2023-03-26T20:04:51.458Z,18.13
2023-03-26T20:07:19.497Z,18.21
2023-03-26T20:09:52.444Z,18.32
2023-03-26T20:12:19.782Z,18.21
2023-03-26T20:14:46.536Z,18.20
2023-03-26T20:17:14.234Z,18.15
2023-03-26T20:19:41.018Z,18.24
2023-03-26T20:22:20.017Z,18.17
2023-03-26T20:24:46.860Z,18.08
2023-03-26T20:27:14.373Z,17.97
2023-03-26T20:29:41.351Z,18.00
2023-03-26T20:32:17.504Z,18.01
2023-03-26T20:34:44.687Z,17.87
2023-03-26T20:37:11.216Z,17.82
2023-03-26T20:39:39.543Z,17.92
2023-03-26T20:42:06.314Z,17.92
2023-03-26T20:44:33.082Z,17.89
2023-03-26T20:46:59.734Z,18.05
2023-03-26T20:49:29.509Z,18.01
2023-03-26T20:51:56.242Z,17.91
2023-03-26T20:54:24.615Z,18.08
2023-03-26T20:56:52.532Z,18.18
2023-03-26T20:59:21.709Z,18.12
2023-03-26T21:01:49.939Z,17.89
2023-03-26T21:04:17.565Z,18.00
2023-03-26T21:06:44.421Z,17.83
2023-03-26T21:09:15.952Z,17.89
2023-03-26T21:11:45.875Z,17.87
2023-03-26T21:14:18.504Z,17.75
2023-03-26T21:16:45.477Z,17.75
2023-03-26T21:19:13.352Z,17.75
2023-03-26T21:21:57.604Z,17.70
2023-03-26T21:24:33.126Z,17.50
2023-03-26T21:27:00.021Z,17.58
2023-03-26T21:29:27.397Z,16.91
2023-03-26T21:31:55.348Z,16.96
2023-03-26T21:37:07.347Z,16.92
2023-03-26T21:39:34.235Z,17.08
2023-03-26T21:42:04.835Z,17.07
2023-03-26T21:44:33.008Z,17.13
2023-03-26T21:46:59.765Z,17.11
2023-03-26T21:49:26.596Z,16.97
2023-03-26T21:51:53.508Z,16.89
2023-03-26T21:54:22.693Z,16.87
2023-03-26T21:57:08.179Z,16.67
2023-03-26T21:59:39.870Z,16.63
2023-03-26T22:02:17.657Z,16.52
2023-03-26T22:05:00.678Z,16.44
2023-03-26T22:07:41.601Z,16.48
2023-03-26T22:10:08.384Z,16.59
2023-03-26T22:12:35.148Z,16.74
2023-03-26T22:15:01.826Z,16.65
2023-03-26T22:17:28.752Z,16.54
2023-03-26T22:19:56.155Z,16.84
2023-03-26T22:25:10.438Z,16.73
2023-03-26T22:27:44.513Z,16.91
2023-03-26T22:30:12.483Z,16.92
2023-03-26T22:32:39.262Z,16.83
2023-03-26T22:35:07.032Z,16.85
2023-03-26T22:37:34.514Z,16.82
2023-03-26T22:40:01.382Z,16.76
2023-03-26T22:42:28.044Z,16.65
2023-03-26T22:44:54.861Z,16.68
2023-03-26T22:47:22.612Z,16.38
2023-03-26T22:49:49.430Z,16.29
2023-03-26T22:52:16.040Z,16.15
2023-03-26T22:54:42.778Z,16.05
2023-03-26T22:57:09.617Z,15.86
2023-03-26T22:59:36.290Z,15.89
2023-03-26T23:02:03.056Z,15.56
2023-03-26T23:04:32.461Z,15.69
2023-03-26T23:06:59.258Z,15.86
2023-03-26T23:09:25.861Z,15.83
2023-03-26T23:11:52.645Z,15.69
2023-03-26T23:14:19.281Z,15.69
2023-03-26T23:16:46.005Z,15.72
2023-03-26T23:19:12.781Z,15.74
2023-03-26T23:21:40.092Z,15.94
2023-03-26T23:24:06.847Z,15.94
2023-03-26T23:26:47.980Z,16.00
2023-03-26T23:29:17.400Z,15.92
2023-03-26T23:31:44.077Z,16.02
2023-03-26T23:34:13.480Z,16.06
2023-03-26T23:36:40.923Z,15.54
2023-03-26T23:39:09.252Z,15.67
2023-03-26T23:41:36.839Z,15.67
2023-03-26T23:44:03.938Z,15.69
2023-03-26T23:46:33.087Z,15.20
2023-03-26T23:49:02.474Z,15.36
2023-03-26T23:51:30.405Z,15.49
2023-03-26T23:53:57.871Z,15.61
2023-03-26T23:56:24.538Z,15.17
2023-03-26T23:58:51.235Z,15.30
